sensor_id;sensor_type;location;lat;lon;timestamp;pressure;altitude;pressure_sealevel;temperature;humidity
77725;BME280;66892;53.236;6.550;2023-12-14T00:02:17;101163.09;;;3.81;100.00
77725;BME280;66892;53.236;6.550;2023-12-14T00:04:43;101173.53;;;3.81;100.00
77725;BME280;66892;53.236;6.550;2023-12-14T00:07:09;101181.25;;;3.76;100.00
77725;BME280;66892;53.236;6.550;2023-12-14T00:09:36;101192.38;;;3.69;100.00
77725;BME280;66892;53.236;6.550;2023-12-14T00:12:02;101203.84;;;3.74;100.00
77725;BME280;66892;53.236;6.550;2023-12-14T00:14:30;101196.09;;;3.77;100.00
77725;BME280;66892;53.236;6.550;2023-12-14T00:16:56;101200.34;;;3.73;100.00
77725;BME280;66892;53.236;6.550;2023-12-14T00:19:24;101206.38;;;3.71;100.00
77725;BME280;66892;53.236;6.550;2023-12-14T00:21:50;101208.09;;;3.69;100.00
77725;BME280;66892;53.236;6.550;2023-12-14T00:24:16;101208.81;;;3.65;100.00
77725;BME280;66892;53.236;6.550;2023-12-14T00:26:42;101217.59;;;3.67;100.00
77725;BME280;66892;53.236;6.550;2023-12-14T00:29:08;101208.00;;;3.66;100.00
77725;BME280;66892;53.236;6.550;2023-12-14T00:31:36;101220.28;;;3.70;100.00
77725;BME280;66892;53.236;6.550;2023-12-14T00:34:02;101223.88;;;3.72;100.00
77725;BME280;66892;53.236;6.550;2023-12-14T00:36:28;101231.81;;;3.77;100.00
77725;BME280;66892;53.236;6.550;2023-12-14T00:38:54;101230.94;;;3.76;100.00
77725;BME280;66892;53.236;6.550;2023-12-14T00:41:21;101228.22;;;3.73;100.00
77725;BME280;66892;53.236;6.550;2023-12-14T00:43:47;101236.06;;;3.73;100.00
77725;BME280;66892;53.236;6.550;2023-12-14T00:46:13;101241.38;;;3.75;100.00
77725;BME280;66892;53.236;6.550;2023-12-14T00:48:40;101234.31;;;3.72;100.00
77725;BME280;66892;53.236;6.550;2023-12-14T00:51:06;101236.03;;;3.71;100.00
77725;BME280;66892;53.236;6.550;2023-12-14T00:53:32;101243.84;;;3.70;100.00
77725;BME280;66892;53.236;6.550;2023-12-14T00:55:58;101248.97;;;3.67;100.00
77725;BME280;66892;53.236;6.550;2023-12-14T00:58:24;101255.06;;;3.66;100.00
77725;BME280;66892;53.236;6.550;2023-12-14T01:00:50;101255.91;;;3.66;100.00
77725;BME280;66892;53.236;6.550;2023-12-14T01:03:17;101265.53;;;3.66;100.00
77725;BME280;66892;53.236;6.550;2023-12-14T01:05:44;101270.75;;;3.66;100.00
77725;BME280;66892;53.236;6.550;2023-12-14T01:08:10;101275.91;;;3.64;100.00
77725;BME280;66892;53.236;6.550;2023-12-14T01:10:36;101274.19;;;3.65;100.00
77725;BME280;66892;53.236;6.550;2023-12-14T01:13:02;101280.41;;;3.68;100.00
77725;BME280;66892;53.236;6.550;2023-12-14T01:15:28;101281.22;;;3.66;100.00
77725;BME280;66892;53.236;6.550;2023-12-14T01:17:54;101285.56;;;3.67;100.00
77725;BME280;66892;53.236;6.550;2023-12-14T01:20:20;101293.50;;;3.68;100.00
77725;BME280;66892;53.236;6.550;2023-12-14T01:22:48;101297.81;;;3.68;100.00
77725;BME280;66892;53.236;6.550;2023-12-14T01:25:14;101303.16;;;3.71;100.00
77725;BME280;66892;53.236;6.550;2023-12-14T01:27:40;101308.38;;;3.71;100.00
77725;BME280;66892;53.236;6.550;2023-12-14T01:30:07;101312.81;;;3.73;100.00
77725;BME280;66892;53.236;6.550;2023-12-14T01:32:33;101305.78;;;3.71;100.00
77725;BME280;66892;53.236;6.550;2023-12-14T01:34:59;101313.56;;;3.69;100.00
77725;BME280;66892;53.236;6.550;2023-12-14T01:37:25;101305.78;;;3.72;100.00
77725;BME280;66892;53.236;6.550;2023-12-14T01:39:53;101322.63;;;3.81;100.00
77725;BME280;66892;53.236;6.550;2023-12-14T01:42:19;101326.84;;;3.76;100.00
77725;BME280;66892;53.236;6.550;2023-12-14T01:44:45;101338.03;;;3.71;100.00
77725;BME280;66892;53.236;6.550;2023-12-14T01:47:11;101345.25;;;3.79;100.00
77725;BME280;66892;53.236;6.550;2023-12-14T01:49:37;101340.84;;;3.78;100.00
77725;BME280;66892;53.236;6.550;2023-12-14T01:52:03;101338.13;;;3.75;100.00
77725;BME280;66892;53.236;6.550;2023-12-14T01:54:29;101335.44;;;3.71;100.00
77725;BME280;66892;53.236;6.550;2023-12-14T01:56:56;101334.53;;;3.71;100.00
77725;BME280;66892;53.236;6.550;2023-12-14T01:59:23;101342.31;;;3.69;100.00
77725;BME280;66892;53.236;6.550;2023-12-14T02:01:52;101353.66;;;3.70;100.00
77725;BME280;66892;53.236;6.550;2023-12-14T02:04:18;101358.06;;;3.71;100.00
77725;BME280;66892;53.236;6.550;2023-12-14T02:06:44;101358.06;;;3.71;100.00
77725;BME280;66892;53.236;6.550;2023-12-14T02:09:10;101351.03;;;3.68;100.00
77725;BME280;66892;53.236;6.550;2023-12-14T02:11:37;101349.41;;;3.72;100.00
77725;BME280;66892;53.236;6.550;2023-12-14T02:14:05;101359.75;;;3.69;100.00
77725;BME280;66892;53.236;6.550;2023-12-14T02:16:31;101355.38;;;3.68;100.00
77725;BME280;66892;53.236;6.550;2023-12-14T02:18:58;101363.34;;;3.72;100.00
77725;BME280;66892;53.236;6.550;2023-12-14T02:21:24;101366.75;;;3.70;100.00
77725;BME280;66892;53.236;6.550;2023-12-14T02:23:51;101374.59;;;3.70;100.00
77725;BME280;66892;53.236;6.550;2023-12-14T02:26:17;101385.91;;;3.69;100.00
77725;BME280;66892;53.236;6.550;2023-12-14T02:28:43;101385.81;;;3.66;100.00
77725;BME280;66892;53.236;6.550;2023-12-14T02:31:09;101386.75;;;3.68;100.00
77725;BME280;66892;53.236;6.550;2023-12-14T02:33:35;101386.75;;;3.68;100.00
77725;BME280;66892;53.236;6.550;2023-12-14T02:36:02;101387.56;;;3.67;100.00
77725;BME280;66892;53.236;6.550;2023-12-14T02:38:29;101381.50;;;3.68;100.00
77725;BME280;66892;53.236;6.550;2023-12-14T02:40:56;101388.44;;;3.66;100.00
77725;BME280;66892;53.236;6.550;2023-12-14T02:43:22;101390.19;;;3.67;100.00
77725;BME280;66892;53.236;6.550;2023-12-14T02:45:49;101400.63;;;3.65;100.00
77725;BME280;66892;53.236;6.550;2023-12-14T02:48:15;101390.16;;;3.65;100.00
77725;BME280;66892;53.236;6.550;2023-12-14T02:50:41;101394.53;;;3.66;100.00
77725;BME280;66892;53.236;6.550;2023-12-14T02:53:07;101403.22;;;3.65;100.00
77725;BME280;66892;53.236;6.550;2023-12-14T02:55:33;101403.22;;;3.65;100.00
77725;BME280;66892;53.236;6.550;2023-12-14T02:58:01;101407.66;;;3.68;100.00
77725;BME280;66892;53.236;6.550;2023-12-14T03:00:27;101405.94;;;3.68;100.00
77725;BME280;66892;53.236;6.550;2023-12-14T03:02:53;101408.66;;;3.71;100.00
77725;BME280;66892;53.236;6.550;2023-12-14T03:05:19;101417.41;;;3.72;100.00
77725;BME280;66892;53.236;6.550;2023-12-14T03:07:45;101413.00;;;3.71;100.00
77725;BME280;66892;53.236;6.550;2023-12-14T03:10:11;101412.19;;;3.73;100.00
77725;BME280;66892;53.236;6.550;2023-12-14T03:12:37;101420.88;;;3.72;100.00
77725;BME280;66892;53.236;6.550;2023-12-14T03:15:05;101420.00;;;3.72;100.00
77725;BME280;66892;53.236;6.550;2023-12-14T03:17:31;101426.06;;;3.71;100.00
77725;BME280;66892;53.236;6.550;2023-12-14T03:19:57;101431.47;;;3.76;100.00
77725;BME280;66892;53.236;6.550;2023-12-14T03:22:23;101433.22;;;3.77;100.00
77725;BME280;66892;53.236;6.550;2023-12-14T03:24:49;101441.94;;;3.76;100.00
77725;BME280;66892;53.236;6.550;2023-12-14T03:27:15;101443.75;;;3.78;100.00
77725;BME280;66892;53.236;6.550;2023-12-14T03:29:41;101447.38;;;3.82;100.00
77725;BME280;66892;53.236;6.550;2023-12-14T03:32:08;101449.19;;;3.84;100.00
77725;BME280;66892;53.236;6.550;2023-12-14T03:34:34;101452.59;;;3.82;100.00
77725;BME280;66892;53.236;6.550;2023-12-14T03:37:00;101459.69;;;3.86;100.00
77725;BME280;66892;53.236;6.550;2023-12-14T03:39:26;101458.81;;;3.85;100.00
77725;BME280;66892;53.236;6.550;2023-12-14T03:41:53;101461.38;;;3.84;100.00
77725;BME280;66892;53.236;6.550;2023-12-14T03:44:19;101468.41;;;3.85;100.00
77725;BME280;66892;53.236;6.550;2023-12-14T03:46:45;101466.50;;;3.81;100.00
77725;BME280;66892;53.236;6.550;2023-12-14T03:49:12;101465.72;;;3.83;100.00
77725;BME280;66892;53.236;6.550;2023-12-14T03:51:39;101459.56;;;3.81;100.00
77725;BME280;66892;53.236;6.550;2023-12-14T03:54:05;101461.22;;;3.79;100.00
77725;BME280;66892;53.236;6.550;2023-12-14T03:56:31;101477.66;;;3.75;100.00
77725;BME280;66892;53.236;6.550;2023-12-14T03:58:58;101481.16;;;3.76;100.00
77725;BME280;66892;53.236;6.550;2023-12-14T04:01:24;101483.72;;;3.74;100.00
77725;BME280;66892;53.236;6.550;2023-12-14T04:03:50;101479.22;;;3.70;100.00
77725;BME280;66892;53.236;6.550;2023-12-14T04:06:17;101484.41;;;3.68;100.00
77725;BME280;66892;53.236;6.550;2023-12-14T04:08:43;101486.06;;;3.66;100.00
77725;BME280;66892;53.236;6.550;2023-12-14T04:11:09;101483.44;;;3.66;100.00
77725;BME280;66892;53.236;6.550;2023-12-14T04:13:35;101485.19;;;3.66;100.00
77725;BME280;66892;53.236;6.550;2023-12-14T04:16:02;101486.13;;;3.68;100.00
77725;BME280;66892;53.236;6.550;2023-12-14T04:18:29;101499.19;;;3.68;100.00
77725;BME280;66892;53.236;6.550;2023-12-14T04:20:55;101498.38;;;3.69;100.00
77725;BME280;66892;53.236;6.550;2023-12-14T04:23:22;101500.91;;;3.67;100.00
77725;BME280;66892;53.236;6.550;2023-12-14T04:25:48;101501.75;;;3.66;100.00
77725;BME280;66892;53.236;6.550;2023-12-14T04:28:14;101507.84;;;3.65;100.00
77725;BME280;66892;53.236;6.550;2023-12-14T04:30:40;101510.38;;;3.64;100.00
77725;BME280;66892;53.236;6.550;2023-12-14T04:33:06;101513.00;;;3.64;100.00
77725;BME280;66892;53.236;6.550;2023-12-14T04:35:32;101513.00;;;3.64;100.00
77725;BME280;66892;53.236;6.550;2023-12-14T04:38:02;101514.78;;;3.65;100.00
77725;BME280;66892;53.236;6.550;2023-12-14T04:40:29;101519.94;;;3.63;100.00
77725;BME280;66892;53.236;6.550;2023-12-14T04:42:55;101524.44;;;3.66;100.00
77725;BME280;66892;53.236;6.550;2023-12-14T04:45:21;101527.03;;;3.66;100.00
77725;BME280;66892;53.236;6.550;2023-12-14T04:47:47;101534.00;;;3.65;100.00
77725;BME280;66892;53.236;6.550;2023-12-14T04:50:13;101540.13;;;3.66;100.00
77725;BME280;66892;53.236;6.550;2023-12-14T04:52:41;101546.22;;;3.66;100.00
77725;BME280;66892;53.236;6.550;2023-12-14T04:55:07;101546.16;;;3.65;100.00
77725;BME280;66892;53.236;6.550;2023-12-14T04:57:35;101552.28;;;3.65;100.00
77725;BME280;66892;53.236;6.550;2023-12-14T05:00:02;101560.19;;;3.67;100.00
77725;BME280;66892;53.236;6.550;2023-12-14T05:02:28;101554.06;;;3.66;100.00
77725;BME280;66892;53.236;6.550;2023-12-14T05:04:54;101559.28;;;3.66;100.00
77725;BME280;66892;53.236;6.550;2023-12-14T05:07:20;101562.78;;;3.67;100.00
77725;BME280;66892;53.236;6.550;2023-12-14T05:09:46;101568.91;;;3.67;100.00
77725;BME280;66892;53.236;6.550;2023-12-14T05:12:12;101576.75;;;3.67;100.00
77725;BME280;66892;53.236;6.550;2023-12-14T05:14:39;101588.06;;;3.66;100.00
77725;BME280;66892;53.236;6.550;2023-12-14T05:17:06;101589.81;;;3.66;100.00
77725;BME280;66892;53.236;6.550;2023-12-14T05:19:32;101590.63;;;3.65;100.00
77725;BME280;66892;53.236;6.550;2023-12-14T05:21:58;101590.63;;;3.65;100.00
77725;BME280;66892;53.236;6.550;2023-12-14T05:24:24;101591.53;;;3.65;100.00
77725;BME280;66892;53.236;6.550;2023-12-14T05:26:50;101597.66;;;3.66;100.00
77725;BME280;66892;53.236;6.550;2023-12-14T05:29:17;101599.41;;;3.67;100.00
77725;BME280;66892;53.236;6.550;2023-12-14T05:31:44;101601.19;;;3.68;100.00
77725;BME280;66892;53.236;6.550;2023-12-14T05:34:10;101603.81;;;3.68;100.00
77725;BME280;66892;53.236;6.550;2023-12-14T05:36:36;101603.97;;;3.72;100.00
77725;BME280;66892;53.236;6.550;2023-12-14T05:39:02;101603.94;;;3.71;100.00
77725;BME280;66892;53.236;6.550;2023-12-14T05:41:29;101618.69;;;3.69;100.00
77725;BME280;66892;53.236;6.550;2023-12-14T05:43:55;101627.41;;;3.69;100.00
77725;BME280;66892;53.236;6.550;2023-12-14T05:46:21;101627.41;;;3.69;100.00
77725;BME280;66892;53.236;6.550;2023-12-14T05:48:49;101629.97;;;3.68;100.00
77725;BME280;66892;53.236;6.550;2023-12-14T05:51:26;101631.75;;;3.69;100.00
77725;BME280;66892;53.236;6.550;2023-12-14T05:53:52;101635.25;;;3.69;100.00
77725;BME280;66892;53.236;6.550;2023-12-14T05:56:18;101641.44;;;3.71;100.00
77725;BME280;66892;53.236;6.550;2023-12-14T05:58:44;101644.06;;;3.71;100.00
77725;BME280;66892;53.236;6.550;2023-12-14T06:01:10;101655.31;;;3.69;100.00
77725;BME280;66892;53.236;6.550;2023-12-14T06:03:36;101658.78;;;3.69;100.00
77725;BME280;66892;53.236;6.550;2023-12-14T06:06:04;101656.28;;;3.72;100.00
77725;BME280;66892;53.236;6.550;2023-12-14T06:08:30;101657.06;;;3.70;100.00
77725;BME280;66892;53.236;6.550;2023-12-14T06:10:56;101663.25;;;3.72;100.00
77725;BME280;66892;53.236;6.550;2023-12-14T06:13:22;101665.88;;;3.72;100.00
77725;BME280;66892;53.236;6.550;2023-12-14T06:15:48;101667.63;;;3.73;100.00
77725;BME280;66892;53.236;6.550;2023-12-14T06:18:14;101672.81;;;3.71;100.00
77725;BME280;66892;53.236;6.550;2023-12-14T06:20:40;101669.31;;;3.71;100.00
77725;BME280;66892;53.236;6.550;2023-12-14T06:23:07;101670.13;;;3.70;100.00
77725;BME280;66892;53.236;6.550;2023-12-14T06:25:33;101685.84;;;3.70;100.00
77725;BME280;66892;53.236;6.550;2023-12-14T06:27:59;101681.47;;;3.69;100.00
77725;BME280;66892;53.236;6.550;2023-12-14T06:30:25;101690.06;;;3.66;100.00
77725;BME280;66892;53.236;6.550;2023-12-14T06:32:51;101686.69;;;3.69;100.00
77725;BME280;66892;53.236;6.550;2023-12-14T06:35:17;101701.53;;;3.70;100.00
77725;BME280;66892;53.236;6.550;2023-12-14T06:37:43;101701.59;;;3.71;100.00
77725;BME280;66892;53.236;6.550;2023-12-14T06:40:11;101705.84;;;3.69;100.00
77725;BME280;66892;53.236;6.550;2023-12-14T06:42:37;101698.91;;;3.70;100.00
77725;BME280;66892;53.236;6.550;2023-12-14T06:45:04;101700.69;;;3.71;100.00
77725;BME280;66892;53.236;6.550;2023-12-14T06:47:31;101704.13;;;3.70;100.00
77725;BME280;66892;53.236;6.550;2023-12-14T06:49:57;101708.47;;;3.69;100.00
77725;BME280;66892;53.236;6.550;2023-12-14T06:52:23;101717.28;;;3.71;100.00
77725;BME280;66892;53.236;6.550;2023-12-14T06:54:49;101711.94;;;3.68;100.00
77725;BME280;66892;53.236;6.550;2023-12-14T06:57:16;101725.19;;;3.73;100.00
77725;BME280;66892;53.236;6.550;2023-12-14T06:59:42;101726.06;;;3.73;100.00
77725;BME280;66892;53.236;6.550;2023-12-14T07:02:08;101730.41;;;3.73;100.00
77725;BME280;66892;53.236;6.550;2023-12-14T07:04:34;101736.53;;;3.73;100.00
77725;BME280;66892;53.236;6.550;2023-12-14T07:07:00;101730.41;;;3.73;100.00
77725;BME280;66892;53.236;6.550;2023-12-14T07:09:26;101732.13;;;3.72;100.00
77725;BME280;66892;53.236;6.550;2023-12-14T07:11:53;101729.47;;;3.71;100.00
77725;BME280;66892;53.236;6.550;2023-12-14T07:14:21;101731.19;;;3.70;100.00
77725;BME280;66892;53.236;6.550;2023-12-14T07:16:47;101732.88;;;3.68;100.00
77725;BME280;66892;53.236;6.550;2023-12-14T07:19:13;101744.22;;;3.69;100.00
77725;BME280;66892;53.236;6.550;2023-12-14T07:21:39;101752.91;;;3.68;100.00
77725;BME280;66892;53.236;6.550;2023-12-14T07:24:05;101755.50;;;3.68;100.00
77725;BME280;66892;53.236;6.550;2023-12-14T07:26:31;101760.75;;;3.68;100.00
77725;BME280;66892;53.236;6.550;2023-12-14T07:28:57;101760.75;;;3.68;100.00
77725;BME280;66892;53.236;6.550;2023-12-14T07:31:24;101761.63;;;3.68;100.00
77725;BME280;66892;53.236;6.550;2023-12-14T07:33:51;101760.78;;;3.69;100.00
77725;BME280;66892;53.236;6.550;2023-12-14T07:36:17;101766.00;;;3.69;100.00
77725;BME280;66892;53.236;6.550;2023-12-14T07:38:43;101766.91;;;3.70;100.00
77725;BME280;66892;53.236;6.550;2023-12-14T07:41:09;101772.13;;;3.70;100.00
77725;BME280;66892;53.236;6.550;2023-12-14T07:43:35;101781.00;;;3.73;100.00
77725;BME280;66892;53.236;6.550;2023-12-14T07:46:01;101787.06;;;3.72;100.00
77725;BME280;66892;53.236;6.550;2023-12-14T07:48:28;101790.56;;;3.73;100.00
77725;BME280;66892;53.236;6.550;2023-12-14T07:50:54;101795.81;;;3.73;100.00
77725;BME280;66892;53.236;6.550;2023-12-14T07:53:20;101804.53;;;3.73;100.00
77725;BME280;66892;53.236;6.550;2023-12-14T07:55:46;101809.78;;;3.73;100.00
77725;BME280;66892;53.236;6.550;2023-12-14T07:58:12;101802.91;;;3.76;100.00
77725;BME280;66892;53.236;6.550;2023-12-14T08:00:39;101811.50;;;3.73;100.00
77725;BME280;66892;53.236;6.550;2023-12-14T08:03:04;101812.47;;;3.75;100.00
77725;BME280;66892;53.236;6.550;2023-12-14T08:05:32;101823.88;;;3.77;100.00
77725;BME280;66892;53.236;6.550;2023-12-14T08:07:58;101828.22;;;3.77;100.00
77725;BME280;66892;53.236;6.550;2023-12-14T08:10:25;101831.72;;;3.77;100.00
77725;BME280;66892;53.236;6.550;2023-12-14T08:12:51;101851.81;;;3.78;100.00
77725;BME280;66892;53.236;6.550;2023-12-14T08:15:18;101845.75;;;3.79;100.00
77725;BME280;66892;53.236;6.550;2023-12-14T08:17:44;101852.78;;;3.80;100.00
77725;BME280;66892;53.236;6.550;2023-12-14T08:20:10;101851.94;;;3.81;100.00
77725;BME280;66892;53.236;6.550;2023-12-14T08:22:39;101858.06;;;3.82;100.00
77725;BME280;66892;53.236;6.550;2023-12-14T08:25:11;101864.19;;;3.82;100.00
77725;BME280;66892;53.236;6.550;2023-12-14T08:27:39;101855.47;;;3.82;100.00
77725;BME280;66892;53.236;6.550;2023-12-14T08:30:06;101860.69;;;3.82;100.00
77725;BME280;66892;53.236;6.550;2023-12-14T08:32:32;101861.56;;;3.82;100.00
77725;BME280;66892;53.236;6.550;2023-12-14T08:34:58;101864.31;;;3.85;100.00
77725;BME280;66892;53.236;6.550;2023-12-14T08:37:24;101863.47;;;3.86;100.00
77725;BME280;66892;53.236;6.550;2023-12-14T08:39:52;101867.06;;;3.88;100.00
77725;BME280;66892;53.236;6.550;2023-12-14T08:42:18;101869.81;;;3.91;100.00
77725;BME280;66892;53.236;6.550;2023-12-14T08:44:44;101870.81;;;3.95;100.00
77725;BME280;66892;53.236;6.550;2023-12-14T08:47:10;101876.22;;;3.99;100.00
77725;BME280;66892;53.236;6.550;2023-12-14T08:49:36;101880.66;;;4.02;100.00
77725;BME280;66892;53.236;6.550;2023-12-14T08:52:02;101884.31;;;4.05;100.00
77725;BME280;66892;53.236;6.550;2023-12-14T08:54:30;101880.91;;;4.08;100.00
77725;BME280;66892;53.236;6.550;2023-12-14T08:56:57;101885.41;;;4.10;100.00
77725;BME280;66892;53.236;6.550;2023-12-14T08:59:24;101881.09;;;4.12;100.00
77725;BME280;66892;53.236;6.550;2023-12-14T09:01:50;101886.44;;;4.15;100.00
77725;BME280;66892;53.236;6.550;2023-12-14T09:04:16;101897.94;;;4.19;100.00
77725;BME280;66892;53.236;6.550;2023-12-14T09:06:42;101906.94;;;4.25;100.00
77725;BME280;66892;53.236;6.550;2023-12-14T09:09:10;101907.28;;;4.35;100.00
77725;BME280;66892;53.236;6.550;2023-12-14T09:11:37;101907.41;;;4.38;100.00
77725;BME280;66892;53.236;6.550;2023-12-14T09:14:05;101911.03;;;4.41;100.00
77725;BME280;66892;53.236;6.550;2023-12-14T09:16:31;101911.09;;;4.43;100.00
77725;BME280;66892;53.236;6.550;2023-12-14T09:18:58;101914.59;;;4.43;100.00
77725;BME280;66892;53.236;6.550;2023-12-14T09:21:24;101921.63;;;4.44;100.00
77725;BME280;66892;53.236;6.550;2023-12-14T09:23:50;101913.66;;;4.41;100.00
77725;BME280;66892;53.236;6.550;2023-12-14T09:26:16;101926.75;;;4.41;100.00
77725;BME280;66892;53.236;6.550;2023-12-14T09:28:42;101931.16;;;4.42;100.00
77725;BME280;66892;53.236;6.550;2023-12-14T09:31:09;101921.56;;;4.43;100.00
77725;BME280;66892;53.236;6.550;2023-12-14T09:33:35;101934.66;;;4.43;100.00
77725;BME280;66892;53.236;6.550;2023-12-14T09:36:02;101937.34;;;4.44;100.00
77725;BME280;66892;53.236;6.550;2023-12-14T09:38:28;101937.34;;;4.44;100.00
77725;BME280;66892;53.236;6.550;2023-12-14T09:40:54;101934.78;;;4.46;100.00
77725;BME280;66892;53.236;6.550;2023-12-14T09:43:20;101940.06;;;4.47;100.00
77725;BME280;66892;53.236;6.550;2023-12-14T09:45:50;101940.13;;;4.49;100.00
77725;BME280;66892;53.236;6.550;2023-12-14T09:48:19;101927.03;;;4.49;100.00
77725;BME280;66892;53.236;6.550;2023-12-14T09:50:45;101937.53;;;4.49;100.00
77725;BME280;66892;53.236;6.550;2023-12-14T09:53:12;101937.53;;;4.49;100.00
77725;BME280;66892;53.236;6.550;2023-12-14T09:55:38;101929.66;;;4.49;100.00
77725;BME280;66892;53.236;6.550;2023-12-14T09:58:04;101928.06;;;4.52;100.00
77725;BME280;66892;53.236;6.550;2023-12-14T10:00:33;101934.34;;;4.57;100.00
77725;BME280;66892;53.236;6.550;2023-12-14T10:03:21;101943.22;;;4.61;100.00
77725;BME280;66892;53.236;6.550;2023-12-14T10:05:47;101945.84;;;4.61;100.00
77725;BME280;66892;53.236;6.550;2023-12-14T10:08:14;101948.38;;;4.59;100.00
77725;BME280;66892;53.236;6.550;2023-12-14T10:10:41;101968.59;;;4.62;100.00
77725;BME280;66892;53.236;6.550;2023-12-14T10:13:07;101965.06;;;4.61;100.00
77725;BME280;66892;53.236;6.550;2023-12-14T10:15:40;101976.38;;;4.60;100.00
77725;BME280;66892;53.236;6.550;2023-12-14T10:18:06;101979.91;;;4.61;100.00
77725;BME280;66892;53.236;6.550;2023-12-14T10:20:33;101966.91;;;4.64;100.00
77725;BME280;66892;53.236;6.550;2023-12-14T10:22:59;101970.56;;;4.67;100.00
77725;BME280;66892;53.236;6.550;2023-12-14T10:25:26;101974.97;;;4.68;100.00
77725;BME280;66892;53.236;6.550;2023-12-14T10:27:52;101977.84;;;4.76;100.00
77725;BME280;66892;53.236;6.550;2023-12-14T10:30:21;101977.22;;;4.82;100.00
77725;BME280;66892;53.236;6.550;2023-12-14T10:32:47;101970.41;;;4.87;100.00
77725;BME280;66892;53.236;6.550;2023-12-14T10:35:14;101974.03;;;4.90;100.00
77725;BME280;66892;53.236;6.550;2023-12-14T10:37:43;101965.41;;;4.93;100.00
77725;BME280;66892;53.236;6.550;2023-12-14T10:40:13;101962.78;;;4.93;100.00
77725;BME280;66892;53.236;6.550;2023-12-14T10:42:42;101965.72;;;5.02;100.00
77725;BME280;66892;53.236;6.550;2023-12-14T10:45:11;101975.69;;;5.10;100.00
77725;BME280;66892;53.236;6.550;2023-12-14T10:47:39;101974.44;;;5.24;100.00
77725;BME280;66892;53.236;6.550;2023-12-14T10:50:10;101978.38;;;5.37;100.00
77725;BME280;66892;53.236;6.550;2023-12-14T10:52:37;101974.31;;;5.45;100.00
77725;BME280;66892;53.236;6.550;2023-12-14T10:55:09;101978.91;;;5.52;100.00
77725;BME280;66892;53.236;6.550;2023-12-14T10:57:36;101981.72;;;5.57;100.00
77725;BME280;66892;53.236;6.550;2023-12-14T11:00:03;101980.22;;;5.63;100.00
77725;BME280;66892;53.236;6.550;2023-12-14T11:02:38;101984.72;;;5.67;100.00
77725;BME280;66892;53.236;6.550;2023-12-14T11:05:05;101984.84;;;5.70;100.00
77725;BME280;66892;53.236;6.550;2023-12-14T11:07:45;101985.84;;;5.74;100.00
77725;BME280;66892;53.236;6.550;2023-12-14T11:10:13;101985.03;;;5.76;100.00
77725;BME280;66892;53.236;6.550;2023-12-14T11:13:00;101995.63;;;5.79;100.00
77725;BME280;66892;53.236;6.550;2023-12-14T11:15:28;101993.94;;;5.81;100.00
77725;BME280;66892;53.236;6.550;2023-12-14T11:18:23;101990.47;;;5.81;100.00
77725;BME280;66892;53.236;6.550;2023-12-14T11:20:52;101986.03;;;5.80;100.00
77725;BME280;66892;53.236;6.550;2023-12-14T11:23:30;101992.22;;;5.82;100.00
77725;BME280;66892;53.236;6.550;2023-12-14T11:25:59;102001.78;;;5.80;100.00
77725;BME280;66892;53.236;6.550;2023-12-14T11:28:26;102004.19;;;5.74;100.00
77725;BME280;66892;53.236;6.550;2023-12-14T11:30:52;101994.44;;;5.70;100.00
77725;BME280;66892;53.236;6.550;2023-12-14T11:33:18;102008.97;;;5.60;100.00
77725;BME280;66892;53.236;6.550;2023-12-14T11:35:44;102012.91;;;5.49;100.00
77725;BME280;66892;53.236;6.550;2023-12-14T11:38:10;102017.91;;;5.42;100.00
77725;BME280;66892;53.236;6.550;2023-12-14T11:40:38;102029.22;;;5.41;100.00
77725;BME280;66892;53.236;6.550;2023-12-14T11:43:06;102024.16;;;5.45;100.00
77725;BME280;66892;53.236;6.550;2023-12-14T11:45:33;102029.63;;;5.51;100.00
77725;BME280;66892;53.236;6.550;2023-12-14T11:48:00;102027.16;;;5.56;100.00
77725;BME280;66892;53.236;6.550;2023-12-14T11:50:27;102022.16;;;5.62;100.00
77725;BME280;66892;53.236;6.550;2023-12-14T11:52:55;102029.16;;;5.63;100.00
77725;BME280;66892;53.236;6.550;2023-12-14T11:55:21;102027.41;;;5.62;100.00
77725;BME280;66892;53.236;6.550;2023-12-14T11:57:48;102029.94;;;5.60;100.00
77725;BME280;66892;53.236;6.550;2023-12-14T12:00:17;102036.09;;;5.61;100.00
77725;BME280;66892;53.236;6.550;2023-12-14T12:02:43;102030.75;;;5.58;100.00
77725;BME280;66892;53.236;6.550;2023-12-14T12:05:10;102035.03;;;5.56;100.00
77725;BME280;66892;53.236;6.550;2023-12-14T12:07:44;102043.56;;;5.50;100.00
77725;BME280;66892;53.236;6.550;2023-12-14T12:10:11;102038.19;;;5.46;100.00
77725;BME280;66892;53.236;6.550;2023-12-14T12:12:37;102037.09;;;5.41;100.00
77725;BME280;66892;53.236;6.550;2023-12-14T12:15:04;102039.44;;;5.33;100.00
77725;BME280;66892;53.236;6.550;2023-12-14T12:17:31;102044.44;;;5.27;100.00
77725;BME280;66892;53.236;6.550;2023-12-14T12:20:04;102057.34;;;5.21;100.00
77725;BME280;66892;53.236;6.550;2023-12-14T12:22:31;102052.06;;;5.19;100.00
77725;BME280;66892;53.236;6.550;2023-12-14T12:24:57;102060.06;;;5.24;100.00
77725;BME280;66892;53.236;6.550;2023-12-14T12:27:24;102077.94;;;5.34;100.00
77725;BME280;66892;53.236;6.550;2023-12-14T12:29:50;102066.88;;;5.43;100.00
77725;BME280;66892;53.236;6.550;2023-12-14T12:32:19;102069.78;;;5.49;100.00
77725;BME280;66892;53.236;6.550;2023-12-14T12:34:46;102074.22;;;5.51;100.00
77725;BME280;66892;53.236;6.550;2023-12-14T12:37:13;102076.00;;;5.52;100.00
77725;BME280;66892;53.236;6.550;2023-12-14T12:39:39;102073.50;;;5.55;100.00
77725;BME280;66892;53.236;6.550;2023-12-14T12:42:05;102076.97;;;5.54;100.00
77725;BME280;66892;53.236;6.550;2023-12-14T12:44:31;102076.97;;;5.54;100.00
77725;BME280;66892;53.236;6.550;2023-12-14T12:46:57;102076.84;;;5.51;100.00
77725;BME280;66892;53.236;6.550;2023-12-14T12:49:24;102086.56;;;5.54;100.00